createdAt,value
2023-04-15T00:01:19.095Z,100348.16
2023-04-15T00:03:46.332Z,100334.88
2023-04-15T00:06:13.624Z,100342.84
2023-04-15T00:08:40.457Z,100333.09
2023-04-15T00:11:07.250Z,100329.56
2023-04-15T00:13:34.689Z,100322.50
2023-04-15T00:16:02.147Z,100318.13
2023-04-15T00:18:29.738Z,100316.41
2023-04-15T00:20:56.517Z,100321.72
2023-04-15T00:23:23.404Z,100315.56
2023-04-15T00:25:50.878Z,100323.56
2023-04-15T00:28:17.820Z,100315.63
2023-04-15T00:30:44.992Z,100311.22
2023-04-15T00:33:13.130Z,100315.66
2023-04-15T00:35:39.916Z,100312.09
2023-04-15T00:38:08.242Z,100313.88
2023-04-15T00:40:35.402Z,100301.53
2023-04-15T00:43:02.736Z,100306.84
2023-04-15T00:45:30.081Z,100306.84
2023-04-15T00:47:57.108Z,100297.13
2023-04-15T00:50:24.065Z,100302.44
2023-04-15T00:52:50.862Z,100300.66
2023-04-15T00:55:17.655Z,100306.84
2023-04-15T00:57:44.825Z,100305.13
2023-04-15T01:00:12.261Z,100310.44
2023-04-15T01:02:42.324Z,100306.84
2023-04-15T01:05:09.361Z,100293.59
2023-04-15T01:07:36.237Z,100300.66
2023-04-15T01:10:04.846Z,100300.66
2023-04-15T01:12:33.202Z,100311.28
2023-04-15T01:15:01.006Z,100297.97
2023-04-15T01:17:28.193Z,100295.31
2023-04-15T01:19:57.852Z,100297.09
2023-04-15T01:22:26.636Z,100290.03
2023-04-15T01:25:15.191Z,100292.69
2023-04-15T01:27:45.296Z,100292.66
2023-04-15T01:30:12.480Z,100285.56
2023-04-15T01:32:39.340Z,100289.13
2023-04-15T01:35:06.550Z,100309.47
2023-04-15T01:37:33.808Z,100297.97
2023-04-15T01:40:00.672Z,100291.81
2023-04-15T01:42:27.674Z,100287.41
2023-04-15T01:44:54.728Z,100290.06
2023-04-15T01:47:21.578Z,100283.91
2023-04-15T01:49:48.618Z,100285.72
2023-04-15T01:52:15.696Z,100290.19
2023-04-15T01:54:42.485Z,100284.94
2023-04-15T01:57:09.749Z,100276.97
2023-04-15T01:59:37.035Z,100268.13
2023-04-15T02:02:04.276Z,100275.22
2023-04-15T02:04:31.627Z,100277.88
2023-04-15T02:06:58.398Z,100275.22
2023-04-15T02:09:25.464Z,100264.63
2023-04-15T02:11:54.195Z,100260.19
2023-04-15T02:14:21.064Z,100255.81
2023-04-15T02:16:47.893Z,100264.69
2023-04-15T02:19:15.363Z,100266.53
2023-04-15T02:21:42.276Z,100267.44
2023-04-15T02:24:09.147Z,100261.28
2023-04-15T02:26:36.194Z,100267.50
2023-04-15T02:29:03.094Z,100254.28
2023-04-15T02:31:30.062Z,100260.47
2023-04-15T02:33:56.919Z,100264.00
2023-04-15T02:36:23.923Z,100257.88
2023-04-15T02:38:50.799Z,100272.88
2023-04-15T02:41:18.681Z,100272.94
2023-04-15T02:43:45.458Z,100273.78
2023-04-15T02:46:14.632Z,100272.03
2023-04-15T02:48:41.867Z,100272.94
2023-04-15T02:51:14.260Z,100275.59
2023-04-15T02:53:41.525Z,100269.41
2023-04-15T02:56:08.543Z,100277.34
2023-04-15T02:58:39.292Z,100279.13
2023-04-15T03:01:06.110Z,100273.84
2023-04-15T03:03:33.022Z,100280.91
2023-04-15T03:05:59.867Z,100278.28
2023-04-15T03:08:26.813Z,100277.41
2023-04-15T03:10:54.250Z,100279.16
2023-04-15T03:13:21.637Z,100275.63
2023-04-15T03:15:48.645Z,100265.06
2023-04-15T03:18:15.553Z,100275.66
2023-04-15T03:20:42.462Z,100271.28
2023-04-15T03:23:09.259Z,100273.06
2023-04-15T03:25:37.396Z,100274.81
2023-04-15T03:28:04.425Z,100272.16
2023-04-15T03:30:31.446Z,100266.03
2023-04-15T03:32:58.395Z,100271.31
2023-04-15T03:35:25.419Z,100272.19
2023-04-15T03:37:52.227Z,100272.16
2023-04-15T03:40:21.769Z,100273.06
2023-04-15T03:42:48.542Z,100272.16
2023-04-15T03:45:15.476Z,100266.00
2023-04-15T03:47:42.305Z,100273.97
2023-04-15T03:50:09.287Z,100269.56
2023-04-15T03:52:36.151Z,100270.44
2023-04-15T03:55:02.956Z,100278.44
2023-04-15T03:57:29.779Z,100274.91
2023-04-15T03:59:56.536Z,100281.09
2023-04-15T04:02:23.596Z,100281.97
2023-04-15T04:04:50.813Z,100276.66
2023-04-15T04:07:18.550Z,100274.03
2023-04-15T04:09:47.180Z,100276.66
2023-04-15T04:12:14.298Z,100274.06
2023-04-15T04:14:41.111Z,100267.88
2023-04-15T04:17:08.276Z,100274.06
2023-04-15T04:19:35.307Z,100273.19
2023-04-15T04:22:02.271Z,100267.91
2023-04-15T04:24:29.114Z,100270.56
2023-04-15T04:26:57.115Z,100276.78
2023-04-15T04:29:24.084Z,100263.53
2023-04-15T04:31:50.971Z,100264.44
2023-04-15T04:34:17.792Z,100270.66
2023-04-15T04:36:44.575Z,100271.59
2023-04-15T04:39:11.319Z,100268.94
2023-04-15T04:41:45.215Z,100271.59
2023-04-15T04:44:12.342Z,100279.53
2023-04-15T04:46:39.118Z,100271.59
2023-04-15T04:49:05.869Z,100269.84
2023-04-15T04:51:32.963Z,100275.16
2023-04-15T04:54:00.843Z,100269.84
2023-04-15T04:56:29.151Z,100275.16
2023-04-15T04:58:56.418Z,100278.72
2023-04-15T05:01:23.259Z,100283.13
2023-04-15T05:03:50.692Z,100275.22
2023-04-15T05:06:17.548Z,100284.03
2023-04-15T05:08:44.350Z,100290.22
2023-04-15T05:11:11.159Z,100284.94
2023-04-15T05:13:38.677Z,100285.81
2023-04-15T05:16:06.449Z,100278.72
2023-04-15T05:18:33.458Z,100290.22
2023-04-15T05:21:00.555Z,100284.94
2023-04-15T05:23:27.767Z,100290.22
2023-04-15T05:25:54.592Z,100284.94
2023-04-15T05:28:21.809Z,100276.09
2023-04-15T05:30:48.734Z,100275.25
2023-04-15T05:33:15.811Z,100278.78
2023-04-15T05:35:42.583Z,100268.19
2023-04-15T05:38:09.364Z,100275.22
2023-04-15T05:40:36.844Z,100270.84
2023-04-15T05:43:03.779Z,100276.09
2023-04-15T05:45:30.598Z,100270.81
2023-04-15T05:47:57.408Z,100266.38
2023-04-15T05:50:24.304Z,100259.31
2023-04-15T05:52:51.233Z,100262.88
2023-04-15T05:55:18.072Z,100262.00
2023-04-15T05:57:44.869Z,100254.91
2023-04-15T06:00:12.289Z,100249.63
2023-04-15T06:02:39.241Z,100249.59
2023-04-15T06:05:09.904Z,100242.53
2023-04-15T06:07:38.109Z,100243.41
2023-04-15T06:10:05.992Z,100259.25
2023-04-15T06:12:32.851Z,100258.38
2023-04-15T06:15:00.245Z,100257.50
2023-04-15T06:17:27.295Z,100261.94
2023-04-15T06:19:55.728Z,100268.13
2023-04-15T06:22:23.636Z,100268.13
2023-04-15T06:24:51.506Z,100283.16
2023-04-15T06:27:18.667Z,100280.50
2023-04-15T06:29:45.452Z,100289.34
2023-04-15T06:32:13.039Z,100290.22
2023-04-15T06:34:39.906Z,100287.59
2023-04-15T06:37:09.891Z,100286.72
2023-04-15T06:39:37.137Z,100291.13
2023-04-15T06:42:04.118Z,100299.03
2023-04-15T06:44:33.297Z,100297.28
2023-04-15T06:47:01.096Z,100290.22
2023-04-15T06:49:27.980Z,100287.59
2023-04-15T06:51:54.770Z,100292.00
2023-04-15T06:54:21.723Z,100286.72
2023-04-15T06:56:48.501Z,100290.25
2023-04-15T06:59:15.316Z,100292.91
2023-04-15T07:01:42.095Z,100288.47
2023-04-15T07:04:08.896Z,100295.53
2023-04-15T07:06:35.751Z,100299.00
2023-04-15T07:09:05.150Z,100306.06
2023-04-15T07:11:32.365Z,100310.47
2023-04-15T07:13:59.164Z,100302.50
2023-04-15T07:16:27.898Z,100294.53
2023-04-15T07:18:56.145Z,100307.78
2023-04-15T07:21:23.562Z,100306.00
2023-04-15T07:23:50.467Z,100307.78
2023-04-15T07:26:17.211Z,100305.09
2023-04-15T07:28:43.991Z,100307.78
2023-04-15T07:31:11.085Z,100307.78
2023-04-15T07:33:37.885Z,100313.03
2023-04-15T07:36:04.724Z,100314.81
2023-04-15T07:38:31.554Z,100308.59
2023-04-15T07:40:58.413Z,100309.47
2023-04-15T07:43:25.300Z,100313.91
2023-04-15T07:45:52.156Z,100325.38
2023-04-15T07:48:18.992Z,100320.09
2023-04-15T07:50:45.867Z,100330.69
2023-04-15T07:53:12.652Z,100326.25
2023-04-15T07:55:39.436Z,100327.16
2023-04-15T07:58:06.564Z,100325.38
2023-04-15T08:00:33.411Z,100327.13
2023-04-15T08:03:00.282Z,100320.06
2023-04-15T08:05:27.201Z,100323.56
2023-04-15T08:07:54.013Z,100325.31
2023-04-15T08:10:20.755Z,100327.09
2023-04-15T08:12:49.482Z,100330.63
2023-04-15T08:15:16.784Z,100332.38
2023-04-15T08:17:43.604Z,100338.56
2023-04-15T08:20:11.005Z,100341.19
2023-04-15T08:22:37.790Z,100342.94
2023-04-15T08:25:04.961Z,100347.34
2023-04-15T08:27:31.706Z,100341.19
2023-04-15T08:29:58.454Z,100348.25
2023-04-15T08:32:26.635Z,100348.25
2023-04-15T08:34:53.552Z,100358.84
2023-04-15T08:37:20.948Z,100349.97
2023-04-15T08:39:48.543Z,100351.75
2023-04-15T08:42:24.626Z,100347.34
2023-04-15T08:44:51.658Z,100354.41
2023-04-15T08:47:22.453Z,100345.56
2023-04-15T08:49:53.826Z,100341.09
2023-04-15T08:52:20.845Z,100342.88
2023-04-15T08:54:48.619Z,100348.13
2023-04-15T08:57:16.295Z,100349.91
2023-04-15T08:59:43.905Z,100349.88
2023-04-15T09:02:12.118Z,100351.63
2023-04-15T09:04:38.975Z,100344.53
2023-04-15T09:07:06.079Z,100352.50
2023-04-15T09:09:32.872Z,100356.88
2023-04-15T09:12:01.789Z,100361.22
2023-04-15T09:14:32.020Z,100369.16
2023-04-15T09:17:05.139Z,100370.00
2023-04-15T09:19:34.710Z,100370.84
2023-04-15T09:22:02.512Z,100369.06
2023-04-15T09:24:39.135Z,100379.66
2023-04-15T09:27:06.424Z,100383.16
2023-04-15T09:29:33.793Z,100384.03
2023-04-15T09:32:11.875Z,100386.66
2023-04-15T09:34:38.673Z,100391.94
2023-04-15T09:37:07.608Z,100391.91
2023-04-15T09:39:51.900Z,100395.50
2023-04-15T09:42:24.419Z,100398.13
2023-04-15T09:44:52.997Z,100398.97
2023-04-15T09:47:31.407Z,100401.59
2023-04-15T09:49:59.702Z,100398.06
2023-04-15T09:52:27.264Z,100393.63
2023-04-15T09:54:58.376Z,100402.44
2023-04-15T09:57:25.192Z,100398.00
2023-04-15T09:59:52.507Z,100401.50
2023-04-15T10:02:23.506Z,100404.16
2023-04-15T10:04:51.691Z,100400.63
2023-04-15T10:07:22.386Z,100411.25
2023-04-15T10:09:49.779Z,100397.97
2023-04-15T10:12:18.211Z,100407.66
2023-04-15T10:14:52.956Z,100404.97
2023-04-15T10:17:23.628Z,100401.47
2023-04-15T10:19:54.760Z,100405.84
2023-04-15T10:22:23.309Z,100406.69
2023-04-15T10:24:51.480Z,100404.91
2023-04-15T10:27:18.631Z,100405.75
2023-04-15T10:29:46.315Z,100408.34
2023-04-15T10:32:13.763Z,100407.41
2023-04-15T10:34:40.905Z,100404.72
2023-04-15T10:37:11.568Z,100398.44
2023-04-15T10:39:44.530Z,100396.59
2023-04-15T10:42:19.585Z,100393.00
2023-04-15T10:44:52.143Z,100397.34
2023-04-15T10:47:21.489Z,100397.31
2023-04-15T10:49:50.517Z,100390.19
2023-04-15T10:52:23.322Z,100395.41
2023-04-15T10:54:50.202Z,100402.47
2023-04-15T10:57:23.730Z,100413.09
2023-04-15T11:00:14.597Z,100413.09
2023-04-15T11:02:55.125Z,100409.56
2023-04-15T11:05:49.373Z,100411.34
2023-04-15T11:08:16.733Z,100415.75
2023-04-15T11:10:43.377Z,100414.81
2023-04-15T11:13:10.138Z,100419.25
2023-04-15T11:15:42.623Z,100420.13
2023-04-15T11:18:41.995Z,100426.31
2023-04-15T11:21:09.562Z,100430.75
2023-04-15T11:23:46.805Z,100435.13
2023-04-15T11:26:13.805Z,100433.31
2023-04-15T11:28:45.743Z,100439.50
2023-04-15T11:31:18.436Z,100438.59
2023-04-15T11:33:59.980Z,100442.16
2023-04-15T11:36:28.570Z,100447.47
2023-04-15T11:38:56.156Z,100454.50
2023-04-15T11:41:23.828Z,100454.50
2023-04-15T11:43:52.711Z,100462.41
2023-04-15T11:46:20.370Z,100464.19
2023-04-15T11:48:47.686Z,100465.06
2023-04-15T11:51:15.017Z,100477.47
2023-04-15T11:53:50.492Z,100474.81
2023-04-15T11:56:21.097Z,100483.66
2023-04-15T11:58:50.609Z,100488.97
2023-04-15T12:01:17.609Z,100488.97
2023-04-15T12:03:47.528Z,100488.09
2023-04-15T12:06:19.916Z,100488.97
2023-04-15T12:08:55.782Z,100489.81
2023-04-15T12:11:38.237Z,100495.13
2023-04-15T12:14:30.449Z,100500.44
2023-04-15T12:17:06.076Z,100493.34
2023-04-15T12:19:38.864Z,100498.59
2023-04-15T12:22:11.519Z,100506.53
2023-04-15T12:24:39.765Z,100509.19
2023-04-15T12:27:12.505Z,100510.06
2023-04-15T12:29:41.730Z,100509.13
2023-04-15T12:32:14.222Z,100502.81
2023-04-15T12:34:50.365Z,100504.50
2023-04-15T12:37:17.600Z,100508.81
2023-04-15T12:39:47.917Z,100506.09
2023-04-15T12:42:16.694Z,100513.94
2023-04-15T12:44:43.684Z,100524.47
2023-04-15T12:47:13.523Z,100520.78
2023-04-15T12:49:41.227Z,100529.50
2023-04-15T12:52:08.287Z,100532.97
2023-04-15T12:54:36.072Z,100530.25
2023-04-15T12:57:05.910Z,100534.63
2023-04-15T12:59:33.796Z,100537.22
2023-04-15T13:02:01.118Z,100531.75
2023-04-15T13:04:30.808Z,100536.03
2023-04-15T13:06:57.981Z,100532.34
2023-04-15T13:09:25.017Z,100525.09
2023-04-15T13:11:52.588Z,100524.91
2023-04-15T13:14:19.405Z,100528.19
2023-04-15T13:16:46.343Z,100536.75
2023-04-15T13:19:13.107Z,100531.06
2023-04-15T13:21:39.859Z,100541.41
2023-04-15T13:24:07.232Z,100538.44
2023-04-15T13:26:34.276Z,100539.13
2023-04-15T13:29:01.350Z,100543.41
2023-04-15T13:31:28.286Z,100545.00
2023-04-15T13:33:55.245Z,100549.34
2023-04-15T13:36:22.039Z,100552.59
2023-04-15T13:38:51.185Z,100553.22
2023-04-15T13:41:18.546Z,100555.75
2023-04-15T13:43:45.595Z,100551.13
2023-04-15T13:46:12.509Z,100557.31
2023-04-15T13:48:39.341Z,100550.09
2023-04-15T13:51:06.452Z,100546.53
2023-04-15T13:53:38.319Z,100560.78
2023-04-15T13:56:07.588Z,100555.53
2023-04-15T13:58:34.451Z,100559.09
2023-04-15T14:01:03.251Z,100560.88
2023-04-15T14:03:31.851Z,100559.94
2023-04-15T14:05:59.339Z,100562.56
2023-04-15T14:08:26.129Z,100559.78
2023-04-15T14:10:52.946Z,100558.72
2023-04-15T14:13:19.790Z,100561.25
2023-04-15T14:15:46.964Z,100567.28
2023-04-15T14:18:13.813Z,100560.94
2023-04-15T14:20:40.602Z,100567.78
2023-04-15T14:23:09.903Z,100563.06
2023-04-15T14:25:39.044Z,100572.63
2023-04-15T14:28:06.023Z,100568.00
2023-04-15T14:30:32.902Z,100566.91
2023-04-15T14:32:59.752Z,100577.47
2023-04-15T14:35:27.358Z,100574.03
2023-04-15T14:37:55.576Z,100585.63
2023-04-15T14:40:22.548Z,100591.88
2023-04-15T14:42:49.591Z,100589.31
2023-04-15T14:45:16.506Z,100596.53
2023-04-15T14:47:43.605Z,100599.34
2023-04-15T14:50:10.908Z,100596.78
2023-04-15T14:52:40.308Z,100611.16
2023-04-15T14:55:10.236Z,100611.25
2023-04-15T14:57:38.501Z,100604.97
2023-04-15T15:00:07.490Z,100605.00
2023-04-15T15:02:39.378Z,100606.78
2023-04-15T15:05:08.600Z,100607.75
2023-04-15T15:07:37.170Z,100610.53
2023-04-15T15:10:04.801Z,100612.41
2023-04-15T15:12:32.511Z,100616.91
2023-04-15T15:15:01.528Z,100617.78
2023-04-15T15:17:31.264Z,100624.00
2023-04-15T15:19:58.067Z,100618.69
2023-04-15T15:22:26.037Z,100618.59
2023-04-15T15:24:53.488Z,100622.13
2023-04-15T15:27:20.556Z,100622.03
2023-04-15T15:29:47.358Z,100619.34
2023-04-15T15:32:14.110Z,100622.03
2023-04-15T15:34:40.947Z,100629.06
2023-04-15T15:37:07.699Z,100634.22
2023-04-15T15:39:36.010Z,100630.41
2023-04-15T15:42:03.228Z,100631.09
2023-04-15T15:44:29.986Z,100631.94
2023-04-15T15:46:56.839Z,100630.06
2023-04-15T15:49:25.226Z,100633.66
2023-04-15T15:51:52.091Z,100631.09
2023-04-15T15:54:18.918Z,100633.88
2023-04-15T15:56:45.678Z,100634.94
2023-04-15T15:59:14.981Z,100637.75
2023-04-15T16:01:42.211Z,100639.69
2023-04-15T16:04:10.206Z,100646.97
2023-04-15T16:06:37.125Z,100652.41
2023-04-15T16:09:04.312Z,100648.09
2023-04-15T16:11:31.250Z,100662.53
2023-04-15T16:13:58.372Z,100666.31
2023-04-15T16:16:25.406Z,100672.81
2023-04-15T16:18:52.267Z,100664.13
2023-04-15T16:21:20.173Z,100678.53
2023-04-15T16:23:47.407Z,100684.84
2023-04-15T16:26:14.328Z,100684.09
2023-04-15T16:28:41.202Z,100691.28
2023-04-15T16:31:08.018Z,100694.84
2023-04-15T16:33:34.841Z,100704.66
2023-04-15T16:36:01.641Z,100700.22
2023-04-15T16:38:28.396Z,100690.44
2023-04-15T16:40:59.079Z,100702.84
2023-04-15T16:43:26.363Z,100705.53
2023-04-15T16:45:53.413Z,100712.56
2023-04-15T16:48:20.787Z,100707.22
2023-04-15T16:50:49.071Z,100707.13
2023-04-15T16:53:16.524Z,100712.38
2023-04-15T16:55:43.913Z,100724.75
2023-04-15T16:58:10.719Z,100717.59
2023-04-15T17:00:37.479Z,100727.31
2023-04-15T17:03:05.901Z,100724.63
2023-04-15T17:05:33.112Z,100732.63
2023-04-15T17:08:00.056Z,100726.34
2023-04-15T17:10:27.513Z,100742.34
2023-04-15T17:12:57.148Z,100738.78
2023-04-15T17:15:24.481Z,100745.03
2023-04-15T17:17:51.379Z,100749.50
2023-04-15T17:20:18.461Z,100750.38
2023-04-15T17:22:46.085Z,100756.66
2023-04-15T17:25:13.820Z,100755.78
2023-04-15T17:27:40.993Z,100762.94
2023-04-15T17:30:08.702Z,100763.91
2023-04-15T17:32:35.869Z,100766.59
2023-04-15T17:35:05.882Z,100768.44
2023-04-15T17:37:36.000Z,100776.47
2023-04-15T17:40:04.349Z,100775.63
2023-04-15T17:42:32.096Z,100775.66
2023-04-15T17:44:58.846Z,100781.91
2023-04-15T17:47:25.721Z,100784.63
2023-04-15T17:49:52.656Z,100783.81
2023-04-15T17:52:19.480Z,100790.06
2023-04-15T17:54:47.754Z,100792.81
2023-04-15T17:57:14.781Z,100795.47
2023-04-15T17:59:44.993Z,100801.78
2023-04-15T18:02:11.972Z,100798.25
2023-04-15T18:04:39.618Z,100796.47
2023-04-15T18:07:06.596Z,100806.28
2023-04-15T18:09:33.474Z,100804.53
2023-04-15T18:12:01.596Z,100812.56
2023-04-15T18:14:34.555Z,100814.41
2023-04-15T18:17:02.887Z,100817.97
2023-04-15T18:19:33.162Z,100811.75
2023-04-15T18:22:00.232Z,100818.88
2023-04-15T18:24:27.945Z,100818.91
2023-04-15T18:26:54.838Z,100822.47
2023-04-15T18:29:21.857Z,100837.63
2023-04-15T18:31:48.681Z,100839.44
2023-04-15T18:34:15.582Z,100840.34
2023-04-15T18:36:42.383Z,100844.84
2023-04-15T18:39:09.148Z,100851.94
2023-04-15T18:41:35.915Z,100849.31
2023-04-15T18:44:02.722Z,100851.97
2023-04-15T18:46:29.610Z,100859.09
2023-04-15T18:48:56.461Z,100858.25
2023-04-15T18:51:23.260Z,100871.59
2023-04-15T18:53:50.057Z,100869.81
2023-04-15T18:56:16.834Z,100880.56
2023-04-15T18:59:26.318Z,100885.91
2023-04-15T19:01:39.598Z,100884.19
2023-04-15T19:04:06.471Z,100884.19
2023-04-15T19:06:33.611Z,100882.41
2023-04-15T19:09:00.736Z,100891.31
2023-04-15T19:11:27.497Z,100890.47
2023-04-15T19:13:54.485Z,100899.34
2023-04-15T19:16:21.370Z,100901.16
2023-04-15T19:18:48.143Z,100899.41
2023-04-15T19:21:15.425Z,100900.31
2023-04-15T19:23:43.081Z,100903.88
2023-04-15T19:26:11.202Z,100919.88
2023-04-15T19:28:38.030Z,100917.22
2023-04-15T19:31:04.896Z,100922.59
2023-04-15T19:33:31.904Z,100927.03
2023-04-15T19:36:04.160Z,100929.72
2023-04-15T19:38:32.231Z,100936.00
2023-04-15T19:40:59.089Z,100939.56
2023-04-15T19:43:25.959Z,100933.34
2023-04-15T19:45:54.390Z,100941.34
2023-04-15T19:48:22.774Z,100942.28
2023-04-15T19:50:49.682Z,100948.53
2023-04-15T19:53:16.469Z,100949.47
2023-04-15T19:55:43.346Z,100945.06
2023-04-15T19:58:10.323Z,100946.84
2023-04-15T20:00:37.924Z,100951.34
2023-04-15T20:03:05.056Z,100942.47
2023-04-15T20:05:32.084Z,100957.56
2023-04-15T20:08:01.224Z,100953.13
2023-04-15T20:10:28.002Z,100955.81
2023-04-15T20:12:54.849Z,100959.34
2023-04-15T20:15:23.510Z,100956.69
2023-04-15T20:17:50.664Z,100955.84
2023-04-15T20:20:17.451Z,100959.41
2023-04-15T20:22:44.253Z,100962.97
2023-04-15T20:25:11.320Z,100969.19
2023-04-15T20:27:38.187Z,100964.78
2023-04-15T20:30:07.300Z,100973.69
2023-04-15T20:32:35.664Z,100976.38
2023-04-15T20:35:07.187Z,100979.06
2023-04-15T20:37:34.598Z,100979.13
2023-04-15T20:40:02.226Z,100977.41
2023-04-15T20:42:34.411Z,100986.28
2023-04-15T20:45:01.739Z,100982.78
2023-04-15T20:47:28.674Z,100982.78
2023-04-15T20:49:55.768Z,100983.72
2023-04-15T20:52:22.513Z,100984.66
2023-04-15T20:54:49.307Z,100990.00
2023-04-15T20:57:16.716Z,100997.09
2023-04-15T20:59:43.542Z,100990.94
2023-04-15T21:02:10.559Z,101002.47
2023-04-15T21:04:38.350Z,101002.53
2023-04-15T21:07:05.164Z,100996.34
2023-04-15T21:09:31.943Z,101000.78
2023-04-15T21:12:01.640Z,101006.13
2023-04-15T21:14:29.069Z,101003.44
2023-04-15T21:16:58.084Z,101013.22
2023-04-15T21:19:24.970Z,101015.00
2023-04-15T21:21:52.281Z,101016.75
2023-04-15T21:24:19.042Z,101020.31
2023-04-15T21:26:45.870Z,101021.22
2023-04-15T21:29:13.067Z,101020.34
2023-04-15T21:31:41.121Z,101021.25
2023-04-15T21:34:08.176Z,101028.38
2023-04-15T21:36:35.454Z,101027.47
2023-04-15T21:39:02.420Z,101032.84
2023-04-15T21:41:29.363Z,101031.13
2023-04-15T21:43:56.150Z,101038.22
2023-04-15T21:46:25.729Z,101036.44
2023-04-15T21:48:59.886Z,101048.88
2023-04-15T21:51:27.604Z,101048.91
2023-04-15T21:53:54.422Z,101050.69
2023-04-15T21:56:23.040Z,101048.03
2023-04-15T21:58:49.900Z,101055.16
2023-04-15T22:01:17.155Z,101056.94
2023-04-15T22:03:44.299Z,101057.81
2023-04-15T22:06:11.512Z,101059.59
2023-04-15T22:08:52.559Z,101059.59
2023-04-15T22:11:27.032Z,101061.41
2023-04-15T22:13:54.683Z,101060.53
2023-04-15T22:16:21.690Z,101063.19
2023-04-15T22:18:48.663Z,101062.28
2023-04-15T22:21:15.577Z,101066.78
2023-04-15T22:23:46.185Z,101059.69
2023-04-15T22:26:13.004Z,101070.34
2023-04-15T22:28:39.829Z,101069.47
2023-04-15T22:31:06.674Z,101072.16
2023-04-15T22:33:33.813Z,101077.44
2023-04-15T22:36:00.626Z,101072.16
2023-04-15T22:38:27.494Z,101084.59
2023-04-15T22:40:54.394Z,101081.03
2023-04-15T22:43:21.190Z,101086.34
2023-04-15T22:45:51.621Z,101083.69
2023-04-15T22:48:19.152Z,101089.94
2023-04-15T22:50:46.112Z,101100.59
2023-04-15T22:53:12.908Z,101097.03
2023-04-15T22:55:39.771Z,101097.06
2023-04-15T22:58:06.570Z,101109.50
2023-04-15T23:00:33.431Z,101109.50
2023-04-15T23:03:00.846Z,101113.91
2023-04-15T23:05:27.917Z,101113.06
2023-04-15T23:07:54.752Z,101114.88
2023-04-15T23:10:21.693Z,101126.41
2023-04-15T23:12:48.509Z,101120.19
2023-04-15T23:15:15.472Z,101111.31
2023-04-15T23:17:43.349Z,101125.50
2023-04-15T23:20:11.294Z,101128.16
2023-04-15T23:22:38.607Z,101125.53
2023-04-15T23:25:06.075Z,101136.19
2023-04-15T23:27:32.892Z,101134.41
2023-04-15T23:29:59.624Z,101133.53
2023-04-15T23:32:27.236Z,101130.88
2023-04-15T23:34:54.370Z,101134.44
2023-04-15T23:37:21.201Z,101134.44
2023-04-15T23:39:48.005Z,101144.16
2023-04-15T23:42:14.794Z,101137.97
2023-04-15T23:44:41.569Z,101136.19
2023-04-15T23:47:08.504Z,101137.13
2023-04-15T23:49:36.569Z,101141.53
2023-04-15T23:52:03.398Z,101138.03
2023-04-15T23:54:30.278Z,101140.69
2023-04-15T23:56:57.080Z,101139.78
2023-04-15T23:59:23.858Z,101141.56
